NCAR-RAP Real-Time Weather Data

Output produced by METARs form (08 May 2021  01:08 UTC)
found at http://weather.rap.ucar.edu/surface/
 
KVTN 080052Z AUTO 11017KT 10SM CLR 19/01 A2992 RMK AO2 SLP128 T01890011
KVTN 072352Z AUTO 12019G26KT 10SM CLR 20/02 A2992 RMK AO2 PK WND 11027/2330 SLP131 T02000017 10217 20178 56024
KVTN 072252Z AUTO 12019G24KT 10SM CLR 21/02 A2994 RMK AO2 PK WND 12026/2202 SLP142 T02060017
KVTN 072152Z AUTO 12016G27KT 10SM CLR 21/02 A2996 RMK AO2 PK WND 12028/2056 SLP147 T02060017
KVTN 072052Z AUTO 12014G25KT 10SM CLR 21/01 A2999 RMK AO2 PK WND 10027/2037 SLP157 T02060011 56024
KVTN 071952Z AUTO 11017G29KT 10SM CLR 20/01 A3001 RMK AO2 PK WND 12029/1948 SLP164 T02000006
KVTN 071852Z AUTO 11016G26KT 10SM CLR 20/00 A3003 RMK AO2 PK WND 10028/1809 SLP170 T02000000
KVTN 071752Z AUTO 09019G25KT 10SM CLR 18/00 A3007 RMK AO2 SLP183 T01830000 10183 20028 58014
KVTN 071652Z AUTO 11014G22KT 10SM CLR 16/02 A3009 RMK AO2 SLP191 T01610017
KVTN 071552Z AUTO 09014G22KT 10SM CLR 16/01 A3010 RMK AO2 SLP192 T01560006
KVTN 071452Z AUTO 10012KT 10SM CLR 13/01 A3011 RMK AO2 SLP195 T01330006 58002
KVTN 071352Z AUTO 07012KT 10SM CLR 11/02 A3012 RMK AO2 SLP197 T01110017
KVTN 071252Z AUTO 07004KT 10SM CLR 07/02 A3013 RMK AO2 SLP201 T00720017
KVTN 071152Z AUTO 08004KT 10SM CLR 03/M01 A3012 RMK AO2 SLP202 7//// T00281006 10061 20011 55002
KVTN 071052Z AUTO 00000KT 10SM CLR 01/M01 A3011 RMK AO2 SLP200 T00111011